Sunday, December 16, 2018, 10:19 AM EST
Back to Local

KILG, Wilmington New Castle Co

Location: New Castle, DE, United States Lat: 39.667
Local Time: 10:19 AM EST (15:19 GMT) Lon: -75.6
Time Zone: US/Eastern Elev: 78 ft

Show me the last for .
Show Decoded

2018-12-16 09:51 METAR KILG 161451Z 05014G23KT 8SM -RA OVC009 06/05 A2989 RMK AO2 PK WND
                 05026/1404 RAB19 CIG 008V013 SLP121 P0000 60000 T00610050 58006 =
2018-12-16 08:51 METAR KILG 161351Z 05017G21KT 10SM OVC006 06/05 A2991 RMK AO2 CIG 005V011 SLP127
                 T00610050 =
2018-12-16 07:51 METAR KILG 161251Z 05018G22KT 5SM BR OVC007 06/05 A2991 RMK AO2 CIG 006V011
                 SLP129 T00560050 =
2018-12-16 06:51 METAR KILG 161151Z 06016G23KT 7SM OVC007 06/04 A2991 RMK AO2 PK WND 06028/1052
                 RAB1053E09 CIG 005V009 SLP127 P0000 60073 70132 T00560044 10083 20056 58017 =
2018-12-16 06:20 METAR KILG 161120Z 06015G23KT 7SM BKN007 OVC014 06/04 A2991 RMK AO2 PK WND
                 06028/1052 RAB1053E09 CIG 006V012 P0000 T00560044 =
2018-12-16 06:01 METAR KILG 161101Z 05018G28KT 7SM -RA BKN009 OVC016 06/04 A2992 RMK AO2 PK WND
                 06028/1052 RAB1053 CIG 007V012 P0000 T00560044 =
2018-12-16 05:51 METAR KILG 161051Z AUTO 05018G25KT 8SM SCT008 BKN016 OVC021 06/04 A2992 RMK AO2
                 PK WND 05027/1023 RAE40 SLP133 P0002 T00560044 =
2018-12-16 05:34 METAR KILG 161034Z AUTO 06019G26KT 9SM -RA SCT008 BKN016 OVC042 06/04 A2993 RMK
                 AO2 PK WND 05027/1023 P0002 T00560044 =
2018-12-16 05:27 METAR KILG 161027Z AUTO 05017G27KT 8SM -RA SCT009 BKN014 OVC042 06/04 A2993 RMK
                 AO2 PK WND 05027/1023 P0002 T00560044 =
2018-12-16 04:51 METAR KILG 160951Z AUTO 05017KT 5SM -RA BR BKN006 OVC013 06/05 A2995 RMK AO2 CIG
                 005V009 SLP143 P0007 T00610050 =
2018-12-16 04:28 METAR KILG 160928Z AUTO 04019G25KT 3SM RA BR BKN006 OVC013 06/05 A2996 RMK AO2
                 P0005 T00610050 =
2018-12-16 04:10 METAR KILG 160910Z AUTO 05016KT 2 1/2SM RA BR BKN006 BKN012 OVC017 06/06 A2995
                 RMK AO2 P0002 T00610056 =
2018-12-16 03:51 METAR KILG 160851Z AUTO 05017G24KT 3SM -RA BR SCT007 BKN010 OVC016 06/06 A2996
                 RMK AO2 CIG 008V011 SLP144 P0009 60064 T00610056 50008 =
2018-12-16 03:34 METAR KILG 160834Z AUTO 05016KT 3SM RA BR BKN007 OVC012 06/06 A2996 RMK AO2 CIG
                 005V009 P0006 T00610056 =
2018-12-16 03:23 METAR KILG 160823Z AUTO 05016KT 2 1/2SM -RA BR OVC007 06/06 A2996 RMK AO2 CIG
                 005V011 P0004 T00610056 =
2018-12-16 02:51 METAR KILG 160751Z AUTO 05014KT 3SM RA BR BKN007 OVC012 06/06 A2997 RMK AO2
                 SLP148 P0018 T00610056 =
2018-12-16 02:32 METAR KILG 160732Z AUTO 05016G22KT 3SM +RA BR OVC008 07/06 A2996 RMK AO2 CIG
                 005V011 P0012 T00670056 =
2018-12-16 02:22 METAR KILG 160722Z AUTO 05013KT 2 1/2SM +RA BR OVC008 07/06 A2997 RMK AO2 CIG
                 005V011 P0010 T00670061 =
2018-12-16 01:57 METAR KILG 160657Z AUTO 06012G20KT 3SM RA BR BKN008 OVC014 07/07 A2995 RMK AO2
                 P0002 T00720067 =
2018-12-16 01:51 METAR KILG 160651Z AUTO 07011G29KT 2 1/2SM +RA BR BKN010 OVC014 07/06 A2995 RMK
                 AO2 PK WND 06029/0642 PRESRR SLP142 P0037 T00720061 =
2018-12-16 01:22 METAR KILG 160622Z AUTO 06018G24KT 3SM +RA BR OVC010 08/07 A2993 RMK AO2 CIG
                 007V014 P0019 T00830072 =
2018-12-16 01:11 METAR KILG 160611Z AUTO 05016G21KT 2SM +RA BR OVC010 08/07 A2994 RMK AO2 CIG
                 007V015 P0013 T00830072 =
2018-12-16 00:51 METAR KILG 160551Z AUTO 06011G22KT 5SM RA BR OVC010 08/07 A2993 RMK AO2 CIG
                 006V012 SLP136 P0005 60029 T00830072 10100 20083 56027 =
2018-12-15 23:51 METAR KILG 160451Z AUTO 05016KT 5SM RA BR OVC013 09/07 A2996 RMK AO2 SLP143
                 P0005 T00890072 401220083 =
2018-12-15 23:09 METAR KILG 160409Z AUTO 06011G18KT 6SM -RA BR OVC014 09/07 A2997 RMK AO2 P0001
                 T00890072 =
2018-12-15 22:51 METAR KILG 160351Z 06012KT 10SM -RA OVC015 09/07 A2998 RMK AO2 SLP152 P0004
                 T00890072 =
2018-12-15 21:51 METAR KILG 160251Z 06010KT 4SM RA BR OVC018 08/07 A3002 RMK AO2 SLP163 P0010
                 60015 T00830072 58009 =
2018-12-15 20:51 METAR KILG 160151Z 05017KT 4SM RA BR OVC018 09/07 A3003 RMK AO2 RAB0057 SLP167
                 P0005 T00890072 =
2018-12-15 19:51 METAR KILG 160051Z 06017G21KT 10SM OVC018 10/07 A3005 RMK AO2 RAE32 SLP176 P0000
                 T01000072 =
2018-12-15 18:51 METAR KILG 152351Z 04013KT 9SM -RA BKN025 OVC040 10/08 A3004 RMK AO2 SLP172
                 P0000 60001 T01000083 10122 20100 53011 =
2018-12-15 17:58 METAR KILG 152258Z 05015G20KT 6SM -RA BR FEW011 OVC018 10/09 A3002 RMK AO2 P0000
                 T01000089 =
2018-12-15 17:51 METAR KILG 152251Z 05012KT 6SM -RA BR BKN007 OVC015 10/09 A3002 RMK AO2 RAB51
                 SLP167 P0000 T01000094 =
2018-12-15 16:51 METAR KILG 152151Z 05015G21KT 5SM BR OVC005 11/09 A3002 RMK AO2 SLP164 T01060094
                 =
2018-12-15 15:51 METAR KILG 152051Z 05018G22KT 6SM BR OVC006 11/10 A3001 RMK AO2 SLP162 60001
                 T01060100 55013 =
2018-12-15 15:17 METAR KILG 152017Z 05016G22KT 4SM BR OVC005 11/10 A3002 RMK AO2 CIG 004V008
                 T01060100 =
2018-12-15 15:01 METAR KILG 152001Z 05015KT 2SM BR OVC005 11/10 A2999 RMK AO2 PRESFR T01060100 =
2018-12-15 14:51 METAR KILG 151951Z 05014KT 4SM BR OVC005 11/11 A3000 RMK AO2 RAE24 SLP160 P0000
                 T01110106 =
2018-12-15 14:47 METAR KILG 151947Z 05016G21KT 4SM BR OVC005 11/11 A3001 RMK AO2 RAE24 P0000 =
2018-12-15 14:40 METAR KILG 151940Z 05015KT 2 1/2SM BR OVC005 11/11 A3001 RMK AO2 RAE24 P0000
                 T01110106 =
2018-12-15 13:51 METAR KILG 151851Z 04010KT 10SM -RA OVC005 12/11 A3005 RMK AO2 SLP174 P0001
                 T01170106 =
2018-12-15 12:51 METAR KILG 151751Z 04010KT 9SM -RA OVC006 11/11 A3007 RMK AO2 SLP182 P0007 60029
                 T01110106 10111 20094 55010 =
2018-12-15 11:51 METAR KILG 151651Z 04010KT 7SM -RA OVC005 11/11 A3007 RMK AO2 SLP181 P0005
                 T01110106 =
2018-12-15 10:51 METAR KILG 151551Z 04012KT 5SM -RA BR OVC005 11/10 A3009 RMK AO2 SLP189 P0005
                 T01060100 =

Support USWX by starting your Amazon purchase here.